sensor_id;sensor_type;location;lat;lon;timestamp;pressure;altitude;pressure_sealevel;temperature;humidity
61474;BME280;53694;49.784;30.150;2023-04-22T00:00:18;99073.61;;;11.20;66.02
61474;BME280;53694;49.784;30.150;2023-04-22T00:01:20;99069.75;;;11.29;65.51
61474;BME280;53694;49.784;30.150;2023-04-22T00:02:22;99068.89;;;11.21;65.29
61474;BME280;53694;49.784;30.150;2023-04-22T00:03:24;99069.95;;;11.06;65.15
61474;BME280;53694;49.784;30.150;2023-04-22T00:04:26;99071.31;;;10.85;65.82
61474;BME280;53694;49.784;30.150;2023-04-22T00:05:28;99067.11;;;10.61;66.42
61474;BME280;53694;49.784;30.150;2023-04-22T00:06:29;99068.83;;;10.39;67.04
61474;BME280;53694;49.784;30.150;2023-04-22T00:07:31;99071.70;;;10.20;67.76
61474;BME280;53694;49.784;30.150;2023-04-22T00:08:33;99064.77;;;9.99;68.41
61474;BME280;53694;49.784;30.150;2023-04-22T00:09:34;99067.25;;;9.82;69.15
61474;BME280;53694;49.784;30.150;2023-04-22T00:10:36;99074.06;;;9.65;69.77
61474;BME280;53694;49.784;30.150;2023-04-22T00:11:38;99066.76;;;9.49;70.27
61474;BME280;53694;49.784;30.150;2023-04-22T00:12:39;99073.59;;;9.36;70.88
61474;BME280;53694;49.784;30.150;2023-04-22T00:13:41;99067.13;;;9.25;71.34
61474;BME280;53694;49.784;30.150;2023-04-22T00:14:42;99072.93;;;9.20;71.65
61474;BME280;53694;49.784;30.150;2023-04-22T00:15:44;99067.98;;;9.29;71.68
61474;BME280;53694;49.784;30.150;2023-04-22T00:16:46;99073.47;;;9.52;71.22
61474;BME280;53694;49.784;30.150;2023-04-22T00:17:48;99076.22;;;9.79;70.40
61474;BME280;53694;49.784;30.150;2023-04-22T00:18:49;99073.50;;;10.09;69.52
61474;BME280;53694;49.784;30.150;2023-04-22T00:19:51;99071.57;;;10.39;68.57
61474;BME280;53694;49.784;30.150;2023-04-22T00:20:53;99076.23;;;10.69;67.43
61474;BME280;53694;49.784;30.150;2023-04-22T00:21:54;99073.31;;;10.88;66.59
61474;BME280;53694;49.784;30.150;2023-04-22T00:22:56;99070.62;;;10.95;65.93
61474;BME280;53694;49.784;30.150;2023-04-22T00:23:58;99072.14;;;10.89;65.75
61474;BME280;53694;49.784;30.150;2023-04-22T00:24:59;99070.39;;;10.74;65.85
61474;BME280;53694;49.784;30.150;2023-04-22T00:26:01;99071.76;;;10.54;66.39
61474;BME280;53694;49.784;30.150;2023-04-22T00:27:02;99073.86;;;10.34;66.97
61474;BME280;53694;49.784;30.150;2023-04-22T00:28:04;99076.65;;;10.11;67.65
61474;BME280;53694;49.784;30.150;2023-04-22T00:29:06;99079.53;;;9.91;68.28
61474;BME280;53694;49.784;30.150;2023-04-22T00:30:08;99074.52;;;9.70;68.94
61474;BME280;53694;49.784;30.150;2023-04-22T00:31:10;99080.91;;;9.51;69.59
61474;BME280;53694;49.784;30.150;2023-04-22T00:32:12;99076.72;;;9.35;70.25
61474;BME280;53694;49.784;30.150;2023-04-22T00:33:13;99083.89;;;9.20;70.79
61474;BME280;53694;49.784;30.150;2023-04-22T00:34:15;99084.84;;;9.08;71.48
61474;BME280;53694;49.784;30.150;2023-04-22T00:35:16;99078.89;;;9.03;71.82
61474;BME280;53694;49.784;30.150;2023-04-22T00:36:18;99077.86;;;9.11;71.91
61474;BME280;53694;49.784;30.150;2023-04-22T00:37:20;99078.95;;;9.29;71.49
61474;BME280;53694;49.784;30.150;2023-04-22T00:38:21;99075.10;;;9.57;70.74
61474;BME280;53694;49.784;30.150;2023-04-22T00:39:23;99075.16;;;9.87;69.87
61474;BME280;53694;49.784;30.150;2023-04-22T00:40:25;99074.02;;;10.18;68.64
61474;BME280;53694;49.784;30.150;2023-04-22T00:41:27;99071.23;;;10.44;67.58
61474;BME280;53694;49.784;30.150;2023-04-22T00:42:29;99074.61;;;10.64;66.80
61474;BME280;53694;49.784;30.150;2023-04-22T00:43:30;99069.56;;;10.70;66.39
61474;BME280;53694;49.784;30.150;2023-04-22T00:44:32;99073.83;;;10.64;66.28
61474;BME280;53694;49.784;30.150;2023-04-22T00:45:36;99076.41;;;10.49;66.42
61474;BME280;53694;49.784;30.150;2023-04-22T00:46:38;99070.66;;;10.28;66.88
61474;BME280;53694;49.784;30.150;2023-04-22T00:47:40;99073.13;;;10.10;67.45
61474;BME280;53694;49.784;30.150;2023-04-22T00:48:42;99065.39;;;9.89;68.00
61474;BME280;53694;49.784;30.150;2023-04-22T00:49:44;99070.56;;;9.68;68.68
61474;BME280;53694;49.784;30.150;2023-04-22T00:50:46;99078.45;;;9.46;69.37
61474;BME280;53694;49.784;30.150;2023-04-22T00:51:47;99061.66;;;9.25;70.14
61474;BME280;53694;49.784;30.150;2023-04-22T00:52:49;99073.10;;;9.08;70.79
61474;BME280;53694;49.784;30.150;2023-04-22T00:53:50;99071.28;;;8.92;71.61
61474;BME280;53694;49.784;30.150;2023-04-22T00:54:52;99070.36;;;8.85;71.97
61474;BME280;53694;49.784;30.150;2023-04-22T00:55:53;99079.05;;;8.90;72.09
61474;BME280;53694;49.784;30.150;2023-04-22T00:56:56;99079.02;;;9.10;71.83
61474;BME280;53694;49.784;30.150;2023-04-22T00:57:59;99070.86;;;9.36;71.21
61474;BME280;53694;49.784;30.150;2023-04-22T00:59:03;99071.31;;;9.65;70.31
61474;BME280;53694;49.784;30.150;2023-04-22T01:00:06;99066.66;;;9.95;69.21
61474;BME280;53694;49.784;30.150;2023-04-22T01:01:08;99068.19;;;10.23;68.23
61474;BME280;53694;49.784;30.150;2023-04-22T01:02:10;99071.67;;;10.46;66.99
61474;BME280;53694;49.784;30.150;2023-04-22T01:03:12;99062.40;;;10.58;66.46
61474;BME280;53694;49.784;30.150;2023-04-22T01:04:13;99072.20;;;10.59;66.08
61474;BME280;53694;49.784;30.150;2023-04-22T01:05:15;99074.41;;;10.46;66.19
61474;BME280;53694;49.784;30.150;2023-04-22T01:06:19;99071.80;;;10.27;66.64
61474;BME280;53694;49.784;30.150;2023-04-22T01:07:20;99073.83;;;10.04;67.21
61474;BME280;53694;49.784;30.150;2023-04-22T01:08:26;99076.59;;;9.77;68.04
61474;BME280;53694;49.784;30.150;2023-04-22T01:09:27;99085.22;;;9.53;68.81
61474;BME280;53694;49.784;30.150;2023-04-22T01:10:29;99074.57;;;9.24;69.94
61474;BME280;53694;49.784;30.150;2023-04-22T01:11:31;99080.05;;;9.01;70.70
61474;BME280;53694;49.784;30.150;2023-04-22T01:12:33;99078.50;;;8.81;71.67
61474;BME280;53694;49.784;30.150;2023-04-22T01:13:35;99079.30;;;8.62;72.46
61474;BME280;53694;49.784;30.150;2023-04-22T01:14:37;99083.41;;;8.53;72.99
61474;BME280;53694;49.784;30.150;2023-04-22T01:15:38;99087.02;;;8.57;73.18
61474;BME280;53694;49.784;30.150;2023-04-22T01:16:41;99078.73;;;8.72;72.94
61474;BME280;53694;49.784;30.150;2023-04-22T01:17:44;99085.39;;;8.94;72.39
61474;BME280;53694;49.784;30.150;2023-04-22T01:18:45;99072.14;;;9.19;71.61
61474;BME280;53694;49.784;30.150;2023-04-22T01:19:47;99078.89;;;9.48;70.86
61474;BME280;53694;49.784;30.150;2023-04-22T01:20:49;99082.81;;;9.74;69.86
61474;BME280;53694;49.784;30.150;2023-04-22T01:21:51;99067.86;;;9.98;69.00
61474;BME280;53694;49.784;30.150;2023-04-22T01:22:54;99069.31;;;10.18;68.19
61474;BME280;53694;49.784;30.150;2023-04-22T01:23:56;99072.64;;;10.31;67.45
61474;BME280;53694;49.784;30.150;2023-04-22T01:24:58;99067.16;;;10.31;67.10
61474;BME280;53694;49.784;30.150;2023-04-22T01:26:00;99071.65;;;10.16;67.12
61474;BME280;53694;49.784;30.150;2023-04-22T01:27:01;99071.36;;;9.95;67.59
61474;BME280;53694;49.784;30.150;2023-04-22T01:28:03;99069.42;;;9.69;68.27
61474;BME280;53694;49.784;30.150;2023-04-22T01:29:05;99076.02;;;9.41;69.10
61474;BME280;53694;49.784;30.150;2023-04-22T01:30:08;99078.72;;;9.15;69.97
61474;BME280;53694;49.784;30.150;2023-04-22T01:31:09;99081.01;;;8.90;70.87
61474;BME280;53694;49.784;30.150;2023-04-22T01:32:11;99080.98;;;8.67;71.77
61474;BME280;53694;49.784;30.150;2023-04-22T01:33:14;99081.34;;;8.46;72.65
61474;BME280;53694;49.784;30.150;2023-04-22T01:34:16;99084.98;;;8.34;73.58
61474;BME280;53694;49.784;30.150;2023-04-22T01:35:18;99082.66;;;8.36;73.76
61474;BME280;53694;49.784;30.150;2023-04-22T01:36:20;99075.92;;;8.49;73.58
61474;BME280;53694;49.784;30.150;2023-04-22T01:37:21;99071.68;;;8.71;73.14
61474;BME280;53694;49.784;30.150;2023-04-22T01:38:23;99077.62;;;8.96;72.36
61474;BME280;53694;49.784;30.150;2023-04-22T01:39:25;99067.89;;;9.22;71.48
61474;BME280;53694;49.784;30.150;2023-04-22T01:40:27;99076.14;;;9.48;70.55
61474;BME280;53694;49.784;30.150;2023-04-22T01:41:30;99073.36;;;9.71;69.51
61474;BME280;53694;49.784;30.150;2023-04-22T01:42:31;99077.17;;;9.90;68.69
61474;BME280;53694;49.784;30.150;2023-04-22T01:43:34;99068.75;;;10.06;67.97
61474;BME280;53694;49.784;30.150;2023-04-22T01:44:35;99073.96;;;10.14;67.48
61474;BME280;53694;49.784;30.150;2023-04-22T01:45:37;99063.70;;;10.08;67.38
61474;BME280;53694;49.784;30.150;2023-04-22T01:46:38;99070.14;;;9.92;67.62
61474;BME280;53694;49.784;30.150;2023-04-22T01:47:40;99067.81;;;9.68;68.21
61474;BME280;53694;49.784;30.150;2023-04-22T01:48:41;99066.22;;;9.40;68.99
61474;BME280;53694;49.784;30.150;2023-04-22T01:49:43;99069.27;;;9.12;69.89
61474;BME280;53694;49.784;30.150;2023-04-22T01:50:44;99075.83;;;8.85;70.74
61474;BME280;53694;49.784;30.150;2023-04-22T01:51:46;99074.20;;;8.61;71.62
61474;BME280;53694;49.784;30.150;2023-04-22T01:52:48;99078.01;;;8.37;72.54
61474;BME280;53694;49.784;30.150;2023-04-22T01:53:50;99074.17;;;8.22;73.29
61474;BME280;53694;49.784;30.150;2023-04-22T01:54:51;99068.70;;;8.22;73.64
61474;BME280;53694;49.784;30.150;2023-04-22T01:55:53;99071.72;;;8.36;73.58
61474;BME280;53694;49.784;30.150;2023-04-22T01:56:55;99064.78;;;8.58;73.15
61474;BME280;53694;49.784;30.150;2023-04-22T01:57:56;99066.39;;;8.82;72.47
61474;BME280;53694;49.784;30.150;2023-04-22T01:58:58;99072.31;;;9.07;71.71
61474;BME280;53694;49.784;30.150;2023-04-22T01:59:59;99068.78;;;9.30;70.90
61474;BME280;53694;49.784;30.150;2023-04-22T02:01:01;99066.03;;;9.53;70.07
61474;BME280;53694;49.784;30.150;2023-04-22T02:02:03;99072.63;;;9.74;69.36
61474;BME280;53694;49.784;30.150;2023-04-22T02:03:04;99072.88;;;9.92;68.66
61474;BME280;53694;49.784;30.150;2023-04-22T02:04:06;99070.38;;;10.10;67.84
61474;BME280;53694;49.784;30.150;2023-04-22T02:05:08;99072.84;;;10.19;67.25
61474;BME280;53694;49.784;30.150;2023-04-22T02:06:10;99066.52;;;10.15;67.09
61474;BME280;53694;49.784;30.150;2023-04-22T02:07:12;99069.08;;;10.00;67.08
61474;BME280;53694;49.784;30.150;2023-04-22T02:08:13;99070.67;;;9.75;67.55
61474;BME280;53694;49.784;30.150;2023-04-22T02:09:15;99071.45;;;9.49;68.24
61474;BME280;53694;49.784;30.150;2023-04-22T02:10:17;99075.66;;;9.20;69.02
61474;BME280;53694;49.784;30.150;2023-04-22T02:11:18;99075.16;;;8.91;69.86
61474;BME280;53694;49.784;30.150;2023-04-22T02:12:20;99077.80;;;8.65;70.76
61474;BME280;53694;49.784;30.150;2023-04-22T02:13:21;99080.41;;;8.38;71.69
61474;BME280;53694;49.784;30.150;2023-04-22T02:14:23;99083.00;;;8.15;72.55
61474;BME280;53694;49.784;30.150;2023-04-22T02:15:24;99067.80;;;7.98;73.37
61474;BME280;53694;49.784;30.150;2023-04-22T02:16:26;99072.92;;;8.00;73.75
61474;BME280;53694;49.784;30.150;2023-04-22T02:17:28;99079.06;;;8.13;73.76
61474;BME280;53694;49.784;30.150;2023-04-22T02:18:30;99070.06;;;8.32;73.33
61474;BME280;53694;49.784;30.150;2023-04-22T02:19:32;99074.49;;;8.56;72.68
61474;BME280;53694;49.784;30.150;2023-04-22T02:20:33;99073.02;;;8.81;71.97
61474;BME280;53694;49.784;30.150;2023-04-22T02:21:35;99081.25;;;9.04;71.15
61474;BME280;53694;49.784;30.150;2023-04-22T02:22:37;99072.62;;;9.25;70.36
61474;BME280;53694;49.784;30.150;2023-04-22T02:23:39;99078.45;;;9.46;69.56
61474;BME280;53694;49.784;30.150;2023-04-22T02:24:41;99078.37;;;9.66;68.82
61474;BME280;53694;49.784;30.150;2023-04-22T02:25:47;99076.27;;;9.82;68.06
61474;BME280;53694;49.784;30.150;2023-04-22T02:26:50;99077.52;;;9.88;67.45
61474;BME280;53694;49.784;30.150;2023-04-22T02:27:51;99075.48;;;9.82;67.16
61474;BME280;53694;49.784;30.150;2023-04-22T02:28:53;99080.67;;;9.64;67.46
61474;BME280;53694;49.784;30.150;2023-04-22T02:29:54;99081.09;;;9.39;67.90
61474;BME280;53694;49.784;30.150;2023-04-22T02:30:56;99076.35;;;9.13;68.59
61474;BME280;53694;49.784;30.150;2023-04-22T02:31:59;99075.46;;;8.86;69.32
61474;BME280;53694;49.784;30.150;2023-04-22T02:33:00;99078.09;;;8.60;70.04
61474;BME280;53694;49.784;30.150;2023-04-22T02:34:02;99080.30;;;8.35;70.85
61474;BME280;53694;49.784;30.150;2023-04-22T02:35:04;99077.48;;;8.12;71.70
61474;BME280;53694;49.784;30.150;2023-04-22T02:36:07;99077.94;;;7.98;72.42
61474;BME280;53694;49.784;30.150;2023-04-22T02:37:08;99071.34;;;7.99;72.77
61474;BME280;53694;49.784;30.150;2023-04-22T02:38:10;99072.02;;;8.12;72.67
61474;BME280;53694;49.784;30.150;2023-04-22T02:39:12;99073.59;;;8.32;72.13
61474;BME280;53694;49.784;30.150;2023-04-22T02:40:13;99070.18;;;8.55;71.57
61474;BME280;53694;49.784;30.150;2023-04-22T02:41:15;99071.00;;;8.78;70.77
61474;BME280;53694;49.784;30.150;2023-04-22T02:42:17;99072.25;;;9.04;70.06
61474;BME280;53694;49.784;30.150;2023-04-22T02:43:18;99073.41;;;9.25;69.32
61474;BME280;53694;49.784;30.150;2023-04-22T02:44:20;99074.57;;;9.47;68.36
61474;BME280;53694;49.784;30.150;2023-04-22T02:45:22;99074.09;;;9.68;67.51
61474;BME280;53694;49.784;30.150;2023-04-22T02:46:23;99068.78;;;9.79;66.57
61474;BME280;53694;49.784;30.150;2023-04-22T02:47:25;99078.95;;;9.79;66.33
61474;BME280;53694;49.784;30.150;2023-04-22T02:48:26;99070.14;;;9.66;66.38
61474;BME280;53694;49.784;30.150;2023-04-22T02:49:28;99073.75;;;9.47;66.68
61474;BME280;53694;49.784;30.150;2023-04-22T02:50:29;99074.57;;;9.24;67.19
61474;BME280;53694;49.784;30.150;2023-04-22T02:51:32;99078.48;;;9.00;67.78
61474;BME280;53694;49.784;30.150;2023-04-22T02:52:33;99072.53;;;8.75;68.37
61474;BME280;53694;49.784;30.150;2023-04-22T02:53:35;99077.94;;;8.53;69.11
61474;BME280;53694;49.784;30.150;2023-04-22T02:54:36;99077.06;;;8.29;69.76
61474;BME280;53694;49.784;30.150;2023-04-22T02:55:40;99079.77;;;8.10;70.51
61474;BME280;53694;49.784;30.150;2023-04-22T02:56:42;99072.67;;;7.89;71.28
61474;BME280;53694;49.784;30.150;2023-04-22T02:57:43;99077.38;;;7.73;72.03
61474;BME280;53694;49.784;30.150;2023-04-22T02:58:45;99079.09;;;7.62;72.62
61474;BME280;53694;49.784;30.150;2023-04-22T02:59:46;99067.09;;;7.66;73.07
61474;BME280;53694;49.784;30.150;2023-04-22T03:00:48;99081.52;;;7.83;73.34
61474;BME280;53694;49.784;30.150;2023-04-22T03:01:50;99080.92;;;8.09;72.81
61474;BME280;53694;49.784;30.150;2023-04-22T03:02:51;99084.30;;;8.37;72.13
61474;BME280;53694;49.784;30.150;2023-04-22T03:03:54;99086.45;;;8.67;71.24
61474;BME280;53694;49.784;30.150;2023-04-22T03:04:56;99090.87;;;8.94;70.45
61474;BME280;53694;49.784;30.150;2023-04-22T03:05:58;99088.27;;;9.24;69.77
61474;BME280;53694;49.784;30.150;2023-04-22T03:06:59;99091.87;;;9.51;68.70
61474;BME280;53694;49.784;30.150;2023-04-22T03:08:01;99089.87;;;9.75;67.95
61474;BME280;53694;49.784;30.150;2023-04-22T03:09:03;99086.59;;;9.92;67.42
61474;BME280;53694;49.784;30.150;2023-04-22T03:10:06;99088.61;;;9.95;66.51
61474;BME280;53694;49.784;30.150;2023-04-22T03:11:07;99090.83;;;9.86;66.41
61474;BME280;53694;49.784;30.150;2023-04-22T03:12:09;99101.94;;;9.70;66.89
61474;BME280;53694;49.784;30.150;2023-04-22T03:13:12;99096.13;;;9.49;67.09
61474;BME280;53694;49.784;30.150;2023-04-22T03:14:13;99101.97;;;9.24;67.51
61474;BME280;53694;49.784;30.150;2023-04-22T03:15:15;99099.94;;;8.98;68.07
61474;BME280;53694;49.784;30.150;2023-04-22T03:16:17;99099.13;;;8.75;68.71
61474;BME280;53694;49.784;30.150;2023-04-22T03:17:18;99097.89;;;8.53;69.30
61474;BME280;53694;49.784;30.150;2023-04-22T03:18:20;99102.44;;;8.10;70.47
61474;BME280;53694;49.784;30.150;2023-04-22T03:19:21;99102.44;;;8.10;70.47
61474;BME280;53694;49.784;30.150;2023-04-22T03:20:23;99107.09;;;7.90;71.10
61474;BME280;53694;49.784;30.150;2023-04-22T03:21:25;99098.62;;;7.80;71.69
61474;BME280;53694;49.784;30.150;2023-04-22T03:22:26;99097.56;;;7.84;71.98
61474;BME280;53694;49.784;30.150;2023-04-22T03:23:28;99101.42;;;7.99;71.91
61474;BME280;53694;49.784;30.150;2023-04-22T03:24:30;99100.36;;;8.23;71.39
61474;BME280;53694;49.784;30.150;2023-04-22T03:25:31;99107.97;;;8.49;70.63
61474;BME280;53694;49.784;30.150;2023-04-22T03:26:33;99106.97;;;8.76;70.06
61474;BME280;53694;49.784;30.150;2023-04-22T03:27:34;99114.19;;;9.08;69.70
61474;BME280;53694;49.784;30.150;2023-04-22T03:28:36;99101.06;;;9.40;68.97
61474;BME280;53694;49.784;30.150;2023-04-22T03:29:37;99106.20;;;9.68;67.41
61474;BME280;53694;49.784;30.150;2023-04-22T03:30:39;99104.54;;;9.86;66.52
61474;BME280;53694;49.784;30.150;2023-04-22T03:31:41;99100.63;;;9.87;65.97
61474;BME280;53694;49.784;30.150;2023-04-22T03:32:42;99105.65;;;9.82;65.63
61474;BME280;53694;49.784;30.150;2023-04-22T03:33:44;99110.11;;;9.67;65.73
61474;BME280;53694;49.784;30.150;2023-04-22T03:34:46;99116.82;;;9.46;65.86
61474;BME280;53694;49.784;30.150;2023-04-22T03:35:47;99105.50;;;9.25;66.34
61474;BME280;53694;49.784;30.150;2023-04-22T03:36:49;99114.91;;;9.05;66.79
61474;BME280;53694;49.784;30.150;2023-04-22T03:37:51;99117.25;;;8.83;67.53
61474;BME280;53694;49.784;30.150;2023-04-22T03:38:53;99112.96;;;8.63;67.99
61474;BME280;53694;49.784;30.150;2023-04-22T03:39:54;99117.26;;;8.44;68.61
61474;BME280;53694;49.784;30.150;2023-04-22T03:40:56;99117.64;;;8.27;69.29
61474;BME280;53694;49.784;30.150;2023-04-22T03:41:57;99119.63;;;8.11;69.70
61474;BME280;53694;49.784;30.150;2023-04-22T03:42:59;99115.02;;;7.95;70.05
61474;BME280;53694;49.784;30.150;2023-04-22T03:44:00;99120.95;;;7.82;70.49
61474;BME280;53694;49.784;30.150;2023-04-22T03:45:03;99123.78;;;7.69;71.01
61474;BME280;53694;49.784;30.150;2023-04-22T03:46:06;99116.28;;;7.66;71.45
61474;BME280;53694;49.784;30.150;2023-04-22T03:47:07;99125.88;;;7.76;71.63
61474;BME280;53694;49.784;30.150;2023-04-22T03:48:09;99120.91;;;7.97;71.41
61474;BME280;53694;49.784;30.150;2023-04-22T03:49:10;99131.33;;;8.27;70.46
61474;BME280;53694;49.784;30.150;2023-04-22T03:50:12;99137.15;;;8.61;69.04
61474;BME280;53694;49.784;30.150;2023-04-22T03:51:14;99126.84;;;8.93;67.91
61474;BME280;53694;49.784;30.150;2023-04-22T03:52:15;99125.84;;;9.24;66.05
61474;BME280;53694;49.784;30.150;2023-04-22T03:53:17;99130.97;;;9.48;65.51
61474;BME280;53694;49.784;30.150;2023-04-22T03:54:18;99124.86;;;9.59;64.95
61474;BME280;53694;49.784;30.150;2023-04-22T03:55:21;99126.81;;;9.58;64.58
61474;BME280;53694;49.784;30.150;2023-04-22T03:56:23;99131.75;;;9.49;64.57
61474;BME280;53694;49.784;30.150;2023-04-22T03:57:24;99134.61;;;9.33;64.78
61474;BME280;53694;49.784;30.150;2023-04-22T03:58:26;99130.39;;;9.16;65.25
61474;BME280;53694;49.784;30.150;2023-04-22T03:59:27;99132.02;;;8.98;65.64
61474;BME280;53694;49.784;30.150;2023-04-22T04:00:29;99136.00;;;8.81;66.06
61474;BME280;53694;49.784;30.150;2023-04-22T04:01:31;99133.25;;;8.62;66.67
61474;BME280;53694;49.784;30.150;2023-04-22T04:02:33;99131.39;;;8.46;67.06
61474;BME280;53694;49.784;30.150;2023-04-22T04:03:34;99137.33;;;8.33;67.69
61474;BME280;53694;49.784;30.150;2023-04-22T04:04:36;99138.23;;;8.21;68.20
61474;BME280;53694;49.784;30.150;2023-04-22T04:05:38;99135.25;;;8.10;68.61
61474;BME280;53694;49.784;30.150;2023-04-22T04:06:40;99131.50;;;7.99;68.89
61474;BME280;53694;49.784;30.150;2023-04-22T04:07:41;99137.16;;;7.90;68.79
61474;BME280;53694;49.784;30.150;2023-04-22T04:08:43;99139.72;;;7.83;68.96
61474;BME280;53694;49.784;30.150;2023-04-22T04:09:44;99143.06;;;7.76;68.95
61474;BME280;53694;49.784;30.150;2023-04-22T04:10:46;99139.45;;;7.72;69.40
61474;BME280;53694;49.784;30.150;2023-04-22T04:11:47;99142.46;;;7.67;69.85
61474;BME280;53694;49.784;30.150;2023-04-22T04:12:49;99142.83;;;7.66;69.67
61474;BME280;53694;49.784;30.150;2023-04-22T04:13:50;99142.37;;;7.64;70.14
61474;BME280;53694;49.784;30.150;2023-04-22T04:14:52;99146.63;;;7.61;70.02
61474;BME280;53694;49.784;30.150;2023-04-22T04:15:53;99146.95;;;7.60;70.17
61474;BME280;53694;49.784;30.150;2023-04-22T04:16:55;99147.05;;;7.63;69.79
61474;BME280;53694;49.784;30.150;2023-04-22T04:17:57;99145.55;;;7.82;69.29
61474;BME280;53694;49.784;30.150;2023-04-22T04:18:58;99146.98;;;8.11;68.63
61474;BME280;53694;49.784;30.150;2023-04-22T04:20:00;99151.17;;;8.40;67.79
61474;BME280;53694;49.784;30.150;2023-04-22T04:21:01;99150.84;;;8.61;66.91
61474;BME280;53694;49.784;30.150;2023-04-22T04:22:03;99149.91;;;8.72;66.57
61474;BME280;53694;49.784;30.150;2023-04-22T04:23:05;99150.77;;;8.76;66.28
61474;BME280;53694;49.784;30.150;2023-04-22T04:24:06;99157.75;;;8.74;65.93
61474;BME280;53694;49.784;30.150;2023-04-22T04:25:08;99151.41;;;8.70;65.68
61474;BME280;53694;49.784;30.150;2023-04-22T04:26:10;99154.44;;;8.65;65.44
61474;BME280;53694;49.784;30.150;2023-04-22T04:27:13;99154.28;;;8.58;65.37
61474;BME280;53694;49.784;30.150;2023-04-22T04:28:15;99151.41;;;8.50;65.42
61474;BME280;53694;49.784;30.150;2023-04-22T04:29:17;99150.09;;;8.44;65.25
61474;BME280;53694;49.784;30.150;2023-04-22T04:30:18;99149.97;;;8.37;65.48
61474;BME280;53694;49.784;30.150;2023-04-22T04:31:20;99151.80;;;8.33;66.00
61474;BME280;53694;49.784;30.150;2023-04-22T04:32:22;99159.92;;;8.30;65.91
61474;BME280;53694;49.784;30.150;2023-04-22T04:33:24;99157.89;;;8.26;65.80
61474;BME280;53694;49.784;30.150;2023-04-22T04:34:25;99169.20;;;8.25;66.08
61474;BME280;53694;49.784;30.150;2023-04-22T04:35:27;99160.20;;;8.24;66.40
61474;BME280;53694;49.784;30.150;2023-04-22T04:36:29;99156.66;;;8.24;65.84
61474;BME280;53694;49.784;30.150;2023-04-22T04:37:31;99169.91;;;8.22;65.54
61474;BME280;53694;49.784;30.150;2023-04-22T04:38:33;99170.27;;;8.20;65.28
61474;BME280;53694;49.784;30.150;2023-04-22T04:39:34;99166.30;;;8.18;65.17
61474;BME280;53694;49.784;30.150;2023-04-22T04:40:36;99169.03;;;8.18;65.40
61474;BME280;53694;49.784;30.150;2023-04-22T04:41:37;99167.45;;;8.17;65.47
61474;BME280;53694;49.784;30.150;2023-04-22T04:42:39;99172.92;;;8.17;65.27
61474;BME280;53694;49.784;30.150;2023-04-22T04:43:40;99169.40;;;8.16;65.48
61474;BME280;53694;49.784;30.150;2023-04-22T04:44:42;99169.03;;;8.18;65.63
61474;BME280;53694;49.784;30.150;2023-04-22T04:45:43;99170.27;;;8.20;65.62
61474;BME280;53694;49.784;30.150;2023-04-22T04:46:45;99176.95;;;8.23;65.08
61474;BME280;53694;49.784;30.150;2023-04-22T04:47:47;99166.80;;;8.23;64.58
61474;BME280;53694;49.784;30.150;2023-04-22T04:48:48;99167.59;;;8.24;64.37
61474;BME280;53694;49.784;30.150;2023-04-22T04:49:50;99176.25;;;8.26;64.03
61474;BME280;53694;49.784;30.150;2023-04-22T04:50:52;99173.52;;;8.26;63.97
61474;BME280;53694;49.784;30.150;2023-04-22T04:51:54;99180.56;;;8.27;64.11
61474;BME280;53694;49.784;30.150;2023-04-22T04:52:55;99186.49;;;8.29;63.75
61474;BME280;53694;49.784;30.150;2023-04-22T04:53:57;99171.66;;;8.30;63.55
61474;BME280;53694;49.784;30.150;2023-04-22T04:54:58;99177.92;;;8.31;63.93
61474;BME280;53694;49.784;30.150;2023-04-22T04:56:00;99172.53;;;8.34;63.85
61474;BME280;53694;49.784;30.150;2023-04-22T04:57:02;99170.70;;;8.38;63.58
61474;BME280;53694;49.784;30.150;2023-04-22T04:58:03;99177.04;;;8.42;63.20
61474;BME280;53694;49.784;30.150;2023-04-22T04:59:05;99171.98;;;8.44;63.08
61474;BME280;53694;49.784;30.150;2023-04-22T05:00:07;99171.28;;;8.47;63.26
61474;BME280;53694;49.784;30.150;2023-04-22T05:01:09;99172.15;;;8.51;62.95
61474;BME280;53694;49.784;30.150;2023-04-22T05:02:10;99178.50;;;8.56;62.75
61474;BME280;53694;49.784;30.150;2023-04-22T05:03:12;99173.89;;;8.60;62.49
61474;BME280;53694;49.784;30.150;2023-04-22T05:04:14;99179.44;;;8.63;62.15
61474;BME280;53694;49.784;30.150;2023-04-22T05:05:15;99178.70;;;8.66;62.01
61474;BME280;53694;49.784;30.150;2023-04-22T05:06:17;99179.94;;;8.69;62.05
61474;BME280;53694;49.784;30.150;2023-04-22T05:07:20;99180.39;;;8.71;61.89
61474;BME280;53694;49.784;30.150;2023-04-22T05:08:22;99178.07;;;8.73;62.04
61474;BME280;53694;49.784;30.150;2023-04-22T05:09:23;99175.78;;;8.75;61.92
61474;BME280;53694;49.784;30.150;2023-04-22T05:10:25;99172.67;;;8.76;61.81
61474;BME280;53694;49.784;30.150;2023-04-22T05:11:27;99175.83;;;8.79;61.74
61474;BME280;53694;49.784;30.150;2023-04-22T05:12:28;99171.14;;;8.79;61.81
61474;BME280;53694;49.784;30.150;2023-04-22T05:13:30;99179.80;;;8.81;61.72
61474;BME280;53694;49.784;30.150;2023-04-22T05:14:31;99181.83;;;8.84;61.28
61474;BME280;53694;49.784;30.150;2023-04-22T05:15:33;99182.25;;;8.86;61.33
61474;BME280;53694;49.784;30.150;2023-04-22T05:17:56;99175.17;;;9.05;61.02
61474;BME280;53694;49.784;30.150;2023-04-22T05:18:57;99178.50;;;8.94;60.85
61474;BME280;53694;49.784;30.150;2023-04-22T05:19:59;99185.56;;;8.95;60.64
61474;BME280;53694;49.784;30.150;2023-04-22T05:21:01;99185.22;;;8.97;60.78
61474;BME280;53694;49.784;30.150;2023-04-22T05:22:03;99183.27;;;8.97;60.62
61474;BME280;53694;49.784;30.150;2023-04-22T05:23:04;99173.10;;;8.98;60.77
61474;BME280;53694;49.784;30.150;2023-04-22T05:24:06;99177.41;;;8.99;60.28
61474;BME280;53694;49.784;30.150;2023-04-22T05:25:08;99179.00;;;9.00;60.21
61474;BME280;53694;49.784;30.150;2023-04-22T05:26:11;99179.44;;;9.02;60.41
61474;BME280;53694;49.784;30.150;2023-04-22T05:27:13;99183.39;;;9.05;60.52
61474;BME280;53694;49.784;30.150;2023-04-22T05:28:14;99184.25;;;9.09;60.39